Delta Virtual Airport Information Service

New York Newark Liberty International Airport

ICAO: KEWR Country: United States
Latitude: 40.6925 Longitude: -74.1686
Latest Arrival : UAL180 (VHHH-KEWR) Latest Departure : FDX631862 (KEWR-KAFW)


WX CaptureLIVE
Data provided by noaa.gov | Fetched at 22:32:40

METAR : KEWR 250251Z 12004KT 10SM SCT020 BKN250 15/12 A3024 RMK AO2 SLP238 T01500117 53008

TAF : KEWR 250234Z 2503/2606 12005KT P6SM FEW020 FM250400 06005KT P6SM SCT008 BKN020 TEMPO 2507/2509 BKN009 FM250900 03004KT P6SM BKN009 FM251400 04005KT P6SM BKN020 FM251800 12007KT P6SM SCT030


Runway Data for KEWR
Data provided by openaviationdata.com

Runway ID Mag Var Hdg Length Elevation Surface ILS Freq ILS Id ILS Slope
04L -13 38° 11003 ft 18 ft Asphalt 110.75 IEWR 3
04R -13 38° 9983 ft 18 ft Asphalt 108.7 IEZA 3
11 -13 108° 6790 ft 18 ft Asphalt 109.15 IGPR 3
22L -13 218° 9983 ft 18 ft Asphalt 108.7 ILSQ 3
22R -13 218° 11003 ft 18 ft Asphalt 110.75 IJNN 3
29 -13 288° 6790 ft 18 ft Asphalt -- -- --

New York Newark Liberty International Airport, United States
Use only for reference purposes



Not for navigational purposes.